sensor_id;sensor_type;location;lat;lon;timestamp;P1;durP1;ratioP1;P2;durP2;ratioP2
21634;SDS011;10979;48.306;9.830;2022-12-29T00:02:10;0.40;;;0.40;;
21634;SDS011;10979;48.306;9.830;2022-12-29T00:04:36;0.40;;;0.40;;
21634;SDS011;10979;48.306;9.830;2022-12-29T00:07:01;0.40;;;0.40;;
21634;SDS011;10979;48.306;9.830;2022-12-29T00:09:29;0.40;;;0.40;;
21634;SDS011;10979;48.306;9.830;2022-12-29T00:11:55;0.40;;;0.40;;
21634;SDS011;10979;48.306;9.830;2022-12-29T00:14:21;0.40;;;0.40;;
21634;SDS011;10979;48.306;9.830;2022-12-29T00:17:05;0.40;;;0.40;;
21634;SDS011;10979;48.306;9.830;2022-12-29T00:19:31;0.30;;;0.30;;
21634;SDS011;10979;48.306;9.830;2022-12-29T00:22:15;0.40;;;0.40;;
21634;SDS011;10979;48.306;9.830;2022-12-29T00:24:59;0.40;;;0.40;;
21634;SDS011;10979;48.306;9.830;2022-12-29T00:27:34;0.40;;;0.40;;
21634;SDS011;10979;48.306;9.830;2022-12-29T00:30:22;0.40;;;0.40;;
21634;SDS011;10979;48.306;9.830;2022-12-29T00:33:11;0.40;;;0.40;;
21634;SDS011;10979;48.306;9.830;2022-12-29T00:39:07;0.40;;;0.40;;
21634;SDS011;10979;48.306;9.830;2022-12-29T00:42:02;0.40;;;0.40;;
21634;SDS011;10979;48.306;9.830;2022-12-29T00:45:04;0.40;;;0.40;;
21634;SDS011;10979;48.306;9.830;2022-12-29T00:47:30;0.40;;;0.40;;
21634;SDS011;10979;48.306;9.830;2022-12-29T00:49:55;0.40;;;0.40;;
21634;SDS011;10979;48.306;9.830;2022-12-29T00:52:21;0.40;;;0.40;;
21634;SDS011;10979;48.306;9.830;2022-12-29T00:54:46;0.40;;;0.40;;
21634;SDS011;10979;48.306;9.830;2022-12-29T00:57:12;0.40;;;0.40;;
21634;SDS011;10979;48.306;9.830;2022-12-29T00:59:38;0.40;;;0.40;;
21634;SDS011;10979;48.306;9.830;2022-12-29T01:02:05;0.40;;;0.40;;
21634;SDS011;10979;48.306;9.830;2022-12-29T01:04:30;0.40;;;0.40;;
21634;SDS011;10979;48.306;9.830;2022-12-29T01:06:56;0.30;;;0.30;;
21634;SDS011;10979;48.306;9.830;2022-12-29T01:09:22;0.30;;;0.30;;
21634;SDS011;10979;48.306;9.830;2022-12-29T01:12:07;0.40;;;0.40;;
21634;SDS011;10979;48.306;9.830;2022-12-29T01:14:33;0.35;;;0.35;;
21634;SDS011;10979;48.306;9.830;2022-12-29T01:17:00;0.30;;;0.30;;
21634;SDS011;10979;48.306;9.830;2022-12-29T01:19:26;0.40;;;0.40;;
21634;SDS011;10979;48.306;9.830;2022-12-29T01:21:51;0.40;;;0.40;;
21634;SDS011;10979;48.306;9.830;2022-12-29T01:24:17;0.30;;;0.30;;
21634;SDS011;10979;48.306;9.830;2022-12-29T01:26:44;0.40;;;0.40;;
21634;SDS011;10979;48.306;9.830;2022-12-29T01:29:10;0.40;;;0.40;;
21634;SDS011;10979;48.306;9.830;2022-12-29T01:31:36;0.30;;;0.30;;
21634;SDS011;10979;48.306;9.830;2022-12-29T01:34:02;0.40;;;0.40;;
21634;SDS011;10979;48.306;9.830;2022-12-29T01:36:28;0.30;;;0.30;;
21634;SDS011;10979;48.306;9.830;2022-12-29T01:38:53;0.35;;;0.35;;
21634;SDS011;10979;48.306;9.830;2022-12-29T01:41:19;0.30;;;0.30;;
21634;SDS011;10979;48.306;9.830;2022-12-29T01:43:46;0.40;;;0.40;;
21634;SDS011;10979;48.306;9.830;2022-12-29T01:48:54;0.30;;;0.30;;
21634;SDS011;10979;48.306;9.830;2022-12-29T01:51:24;0.30;;;0.30;;
21634;SDS011;10979;48.306;9.830;2022-12-29T01:53:54;0.30;;;0.30;;
21634;SDS011;10979;48.306;9.830;2022-12-29T01:56:22;0.30;;;0.30;;
21634;SDS011;10979;48.306;9.830;2022-12-29T01:58:48;0.38;;;0.38;;
21634;SDS011;10979;48.306;9.830;2022-12-29T02:01:23;0.40;;;0.40;;
21634;SDS011;10979;48.306;9.830;2022-12-29T02:03:49;0.30;;;0.30;;
21634;SDS011;10979;48.306;9.830;2022-12-29T02:06:21;0.40;;;0.40;;
21634;SDS011;10979;48.306;9.830;2022-12-29T02:08:49;0.40;;;0.40;;
21634;SDS011;10979;48.306;9.830;2022-12-29T02:11:17;0.30;;;0.30;;
21634;SDS011;10979;48.306;9.830;2022-12-29T02:13:44;0.30;;;0.30;;
21634;SDS011;10979;48.306;9.830;2022-12-29T02:21:53;0.40;;;0.40;;
21634;SDS011;10979;48.306;9.830;2022-12-29T02:27:31;0.40;;;0.40;;
21634;SDS011;10979;48.306;9.830;2022-12-29T02:35:44;0.30;;;0.30;;
21634;SDS011;10979;48.306;9.830;2022-12-29T02:40:59;0.32;;;0.32;;
21634;SDS011;10979;48.306;9.830;2022-12-29T02:43:49;0.40;;;0.40;;
21634;SDS011;10979;48.306;9.830;2022-12-29T02:46:42;0.30;;;0.30;;
21634;SDS011;10979;48.306;9.830;2022-12-29T02:51:54;0.32;;;0.32;;
21634;SDS011;10979;48.306;9.830;2022-12-29T02:54:25;0.30;;;0.30;;
21634;SDS011;10979;48.306;9.830;2022-12-29T02:59:41;0.30;;;0.30;;
21634;SDS011;10979;48.306;9.830;2022-12-29T03:05:04;0.30;;;0.30;;
21634;SDS011;10979;48.306;9.830;2022-12-29T03:07:46;0.40;;;0.40;;
21634;SDS011;10979;48.306;9.830;2022-12-29T03:13:20;0.30;;;0.30;;
21634;SDS011;10979;48.306;9.830;2022-12-29T03:24:20;0.38;;;0.38;;
21634;SDS011;10979;48.306;9.830;2022-12-29T03:26:49;0.30;;;0.30;;
21634;SDS011;10979;48.306;9.830;2022-12-29T03:29:17;0.30;;;0.30;;
21634;SDS011;10979;48.306;9.830;2022-12-29T03:31:45;0.30;;;0.30;;
21634;SDS011;10979;48.306;9.830;2022-12-29T03:34:14;0.30;;;0.30;;
21634;SDS011;10979;48.306;9.830;2022-12-29T03:36:47;0.30;;;0.30;;
21634;SDS011;10979;48.306;9.830;2022-12-29T03:39:24;0.40;;;0.40;;
21634;SDS011;10979;48.306;9.830;2022-12-29T03:41:50;0.40;;;0.40;;
21634;SDS011;10979;48.306;9.830;2022-12-29T03:44:30;0.30;;;0.30;;
21634;SDS011;10979;48.306;9.830;2022-12-29T03:47:06;0.30;;;0.30;;
21634;SDS011;10979;48.306;9.830;2022-12-29T03:49:33;0.30;;;0.30;;
21634;SDS011;10979;48.306;9.830;2022-12-29T03:51:59;0.30;;;0.30;;
21634;SDS011;10979;48.306;9.830;2022-12-29T03:54:24;0.30;;;0.30;;
21634;SDS011;10979;48.306;9.830;2022-12-29T03:56:50;0.30;;;0.30;;
21634;SDS011;10979;48.306;9.830;2022-12-29T03:59:15;0.30;;;0.30;;
21634;SDS011;10979;48.306;9.830;2022-12-29T04:01:41;0.30;;;0.30;;
21634;SDS011;10979;48.306;9.830;2022-12-29T04:04:06;0.30;;;0.30;;
21634;SDS011;10979;48.306;9.830;2022-12-29T04:06:32;0.30;;;0.30;;
21634;SDS011;10979;48.306;9.830;2022-12-29T04:08:57;0.30;;;0.30;;
21634;SDS011;10979;48.306;9.830;2022-12-29T04:11:23;0.35;;;0.35;;
21634;SDS011;10979;48.306;9.830;2022-12-29T04:13:49;0.30;;;0.30;;
21634;SDS011;10979;48.306;9.830;2022-12-29T04:16:14;0.30;;;0.30;;
21634;SDS011;10979;48.306;9.830;2022-12-29T04:18:40;0.30;;;0.30;;
21634;SDS011;10979;48.306;9.830;2022-12-29T04:21:05;0.30;;;0.30;;
21634;SDS011;10979;48.306;9.830;2022-12-29T04:23:33;0.30;;;0.30;;
21634;SDS011;10979;48.306;9.830;2022-12-29T04:26:01;0.30;;;0.30;;
21634;SDS011;10979;48.306;9.830;2022-12-29T04:28:27;0.30;;;0.30;;
21634;SDS011;10979;48.306;9.830;2022-12-29T04:30:53;0.30;;;0.30;;
21634;SDS011;10979;48.306;9.830;2022-12-29T04:33:19;0.30;;;0.30;;
21634;SDS011;10979;48.306;9.830;2022-12-29T04:35:45;0.30;;;0.30;;
21634;SDS011;10979;48.306;9.830;2022-12-29T04:38:11;0.30;;;0.30;;
21634;SDS011;10979;48.306;9.830;2022-12-29T04:40:37;0.30;;;0.30;;
21634;SDS011;10979;48.306;9.830;2022-12-29T04:43:05;0.30;;;0.30;;
21634;SDS011;10979;48.306;9.830;2022-12-29T04:45:31;0.30;;;0.30;;
21634;SDS011;10979;48.306;9.830;2022-12-29T04:47:56;0.30;;;0.30;;
21634;SDS011;10979;48.306;9.830;2022-12-29T04:50:22;0.40;;;0.40;;
21634;SDS011;10979;48.306;9.830;2022-12-29T04:52:47;0.30;;;0.30;;
21634;SDS011;10979;48.306;9.830;2022-12-29T04:55:13;0.30;;;0.30;;
21634;SDS011;10979;48.306;9.830;2022-12-29T04:57:39;0.30;;;0.30;;
21634;SDS011;10979;48.306;9.830;2022-12-29T05:00:04;0.40;;;0.40;;
21634;SDS011;10979;48.306;9.830;2022-12-29T05:02:31;0.30;;;0.30;;
21634;SDS011;10979;48.306;9.830;2022-12-29T05:04:56;0.30;;;0.30;;
21634;SDS011;10979;48.306;9.830;2022-12-29T05:07:22;0.30;;;0.30;;
21634;SDS011;10979;48.306;9.830;2022-12-29T05:09:47;0.40;;;0.40;;
21634;SDS011;10979;48.306;9.830;2022-12-29T05:12:13;0.30;;;0.30;;
21634;SDS011;10979;48.306;9.830;2022-12-29T05:14:38;0.40;;;0.40;;
21634;SDS011;10979;48.306;9.830;2022-12-29T05:17:04;0.30;;;0.30;;
21634;SDS011;10979;48.306;9.830;2022-12-29T05:19:29;0.40;;;0.40;;
21634;SDS011;10979;48.306;9.830;2022-12-29T05:21:55;0.40;;;0.40;;
21634;SDS011;10979;48.306;9.830;2022-12-29T05:24:21;0.40;;;0.40;;
21634;SDS011;10979;48.306;9.830;2022-12-29T05:26:46;0.40;;;0.40;;
21634;SDS011;10979;48.306;9.830;2022-12-29T05:29:12;0.30;;;0.30;;
21634;SDS011;10979;48.306;9.830;2022-12-29T05:31:37;0.40;;;0.40;;
21634;SDS011;10979;48.306;9.830;2022-12-29T05:34:03;0.40;;;0.40;;
21634;SDS011;10979;48.306;9.830;2022-12-29T05:36:28;0.40;;;0.40;;
21634;SDS011;10979;48.306;9.830;2022-12-29T05:38:54;0.40;;;0.40;;
21634;SDS011;10979;48.306;9.830;2022-12-29T05:41:19;0.40;;;0.40;;
21634;SDS011;10979;48.306;9.830;2022-12-29T05:43:45;0.40;;;0.40;;
21634;SDS011;10979;48.306;9.830;2022-12-29T05:46:11;0.30;;;0.30;;
21634;SDS011;10979;48.306;9.830;2022-12-29T05:48:36;0.40;;;0.40;;
21634;SDS011;10979;48.306;9.830;2022-12-29T05:51:02;0.40;;;0.40;;
21634;SDS011;10979;48.306;9.830;2022-12-29T05:53:27;0.40;;;0.40;;
21634;SDS011;10979;48.306;9.830;2022-12-29T05:55:53;0.40;;;0.40;;
21634;SDS011;10979;48.306;9.830;2022-12-29T05:58:18;0.40;;;0.40;;
21634;SDS011;10979;48.306;9.830;2022-12-29T06:00:44;0.30;;;0.30;;
21634;SDS011;10979;48.306;9.830;2022-12-29T06:03:10;0.40;;;0.40;;
21634;SDS011;10979;48.306;9.830;2022-12-29T06:05:35;0.40;;;0.40;;
21634;SDS011;10979;48.306;9.830;2022-12-29T06:08:01;0.40;;;0.40;;
21634;SDS011;10979;48.306;9.830;2022-12-29T06:10:26;0.40;;;0.40;;
21634;SDS011;10979;48.306;9.830;2022-12-29T06:12:52;0.40;;;0.40;;
21634;SDS011;10979;48.306;9.830;2022-12-29T06:15:18;0.40;;;0.40;;
21634;SDS011;10979;48.306;9.830;2022-12-29T06:17:43;0.40;;;0.40;;
21634;SDS011;10979;48.306;9.830;2022-12-29T06:20:09;0.40;;;0.40;;
21634;SDS011;10979;48.306;9.830;2022-12-29T06:22:35;0.40;;;0.40;;
21634;SDS011;10979;48.306;9.830;2022-12-29T06:25:01;0.40;;;0.40;;
21634;SDS011;10979;48.306;9.830;2022-12-29T06:27:27;0.40;;;0.40;;
21634;SDS011;10979;48.306;9.830;2022-12-29T06:29:53;0.30;;;0.30;;
21634;SDS011;10979;48.306;9.830;2022-12-29T06:32:19;0.30;;;0.30;;
21634;SDS011;10979;48.306;9.830;2022-12-29T06:34:45;0.30;;;0.30;;
21634;SDS011;10979;48.306;9.830;2022-12-29T06:37:11;0.40;;;0.40;;
21634;SDS011;10979;48.306;9.830;2022-12-29T06:39:37;0.30;;;0.30;;
21634;SDS011;10979;48.306;9.830;2022-12-29T06:42:02;0.40;;;0.40;;
21634;SDS011;10979;48.306;9.830;2022-12-29T06:44:28;0.40;;;0.40;;
21634;SDS011;10979;48.306;9.830;2022-12-29T06:46:54;0.40;;;0.40;;
21634;SDS011;10979;48.306;9.830;2022-12-29T06:49:19;0.40;;;0.40;;
21634;SDS011;10979;48.306;9.830;2022-12-29T06:51:45;0.40;;;0.40;;
21634;SDS011;10979;48.306;9.830;2022-12-29T06:54:11;0.40;;;0.40;;
21634;SDS011;10979;48.306;9.830;2022-12-29T06:56:36;0.32;;;0.32;;
21634;SDS011;10979;48.306;9.830;2022-12-29T06:59:02;0.40;;;0.40;;
21634;SDS011;10979;48.306;9.830;2022-12-29T07:01:28;0.40;;;0.40;;
21634;SDS011;10979;48.306;9.830;2022-12-29T07:03:53;0.40;;;0.40;;
21634;SDS011;10979;48.306;9.830;2022-12-29T07:06:19;0.40;;;0.40;;
21634;SDS011;10979;48.306;9.830;2022-12-29T07:08:45;0.40;;;0.40;;
21634;SDS011;10979;48.306;9.830;2022-12-29T07:11:11;0.40;;;0.40;;
21634;SDS011;10979;48.306;9.830;2022-12-29T07:13:36;0.40;;;0.40;;
21634;SDS011;10979;48.306;9.830;2022-12-29T07:16:06;0.40;;;0.40;;
21634;SDS011;10979;48.306;9.830;2022-12-29T07:18:32;0.40;;;0.40;;
21634;SDS011;10979;48.306;9.830;2022-12-29T07:20:57;0.40;;;0.40;;
21634;SDS011;10979;48.306;9.830;2022-12-29T07:23:23;0.40;;;0.40;;
21634;SDS011;10979;48.306;9.830;2022-12-29T07:25:48;0.40;;;0.40;;
21634;SDS011;10979;48.306;9.830;2022-12-29T07:28:14;0.40;;;0.40;;
21634;SDS011;10979;48.306;9.830;2022-12-29T07:30:39;0.40;;;0.40;;
21634;SDS011;10979;48.306;9.830;2022-12-29T07:33:05;0.40;;;0.40;;
21634;SDS011;10979;48.306;9.830;2022-12-29T07:35:30;0.40;;;0.40;;
21634;SDS011;10979;48.306;9.830;2022-12-29T07:37:56;0.40;;;0.40;;
21634;SDS011;10979;48.306;9.830;2022-12-29T07:40:21;0.40;;;0.40;;
21634;SDS011;10979;48.306;9.830;2022-12-29T07:42:47;0.40;;;0.40;;
21634;SDS011;10979;48.306;9.830;2022-12-29T07:45:12;0.40;;;0.40;;
21634;SDS011;10979;48.306;9.830;2022-12-29T07:47:38;0.40;;;0.40;;
21634;SDS011;10979;48.306;9.830;2022-12-29T07:50:04;0.40;;;0.40;;
21634;SDS011;10979;48.306;9.830;2022-12-29T07:52:30;0.40;;;0.40;;
21634;SDS011;10979;48.306;9.830;2022-12-29T07:54:55;0.40;;;0.40;;
21634;SDS011;10979;48.306;9.830;2022-12-29T07:57:21;0.40;;;0.40;;
21634;SDS011;10979;48.306;9.830;2022-12-29T07:59:46;0.40;;;0.40;;
21634;SDS011;10979;48.306;9.830;2022-12-29T08:02:12;0.40;;;0.40;;
21634;SDS011;10979;48.306;9.830;2022-12-29T08:04:37;0.40;;;0.40;;
21634;SDS011;10979;48.306;9.830;2022-12-29T08:07:03;0.40;;;0.40;;
21634;SDS011;10979;48.306;9.830;2022-12-29T08:09:29;0.40;;;0.40;;
21634;SDS011;10979;48.306;9.830;2022-12-29T08:11:54;0.40;;;0.40;;
21634;SDS011;10979;48.306;9.830;2022-12-29T08:14:20;0.40;;;0.40;;
21634;SDS011;10979;48.306;9.830;2022-12-29T08:16:45;0.40;;;0.40;;
21634;SDS011;10979;48.306;9.830;2022-12-29T08:19:11;0.40;;;0.40;;
21634;SDS011;10979;48.306;9.830;2022-12-29T08:21:37;0.40;;;0.40;;
21634;SDS011;10979;48.306;9.830;2022-12-29T08:24:03;0.30;;;0.30;;
21634;SDS011;10979;48.306;9.830;2022-12-29T08:26:28;0.40;;;0.40;;
21634;SDS011;10979;48.306;9.830;2022-12-29T08:28:54;0.30;;;0.30;;
21634;SDS011;10979;48.306;9.830;2022-12-29T08:31:20;0.30;;;0.30;;
21634;SDS011;10979;48.306;9.830;2022-12-29T08:33:47;0.30;;;0.30;;
21634;SDS011;10979;48.306;9.830;2022-12-29T08:36:12;0.40;;;0.40;;
21634;SDS011;10979;48.306;9.830;2022-12-29T08:38:38;0.40;;;0.40;;
21634;SDS011;10979;48.306;9.830;2022-12-29T08:41:03;0.30;;;0.30;;
21634;SDS011;10979;48.306;9.830;2022-12-29T08:43:29;0.30;;;0.30;;
21634;SDS011;10979;48.306;9.830;2022-12-29T08:45:55;0.30;;;0.30;;
21634;SDS011;10979;48.306;9.830;2022-12-29T08:48:22;0.40;;;0.40;;
21634;SDS011;10979;48.306;9.830;2022-12-29T08:50:48;0.40;;;0.40;;
21634;SDS011;10979;48.306;9.830;2022-12-29T08:53:15;0.40;;;0.40;;
21634;SDS011;10979;48.306;9.830;2022-12-29T08:55:40;0.40;;;0.40;;
21634;SDS011;10979;48.306;9.830;2022-12-29T08:58:06;0.40;;;0.40;;
21634;SDS011;10979;48.306;9.830;2022-12-29T09:00:31;0.30;;;0.30;;
21634;SDS011;10979;48.306;9.830;2022-12-29T09:02:57;0.40;;;0.40;;
21634;SDS011;10979;48.306;9.830;2022-12-29T09:05:22;0.30;;;0.30;;
21634;SDS011;10979;48.306;9.830;2022-12-29T09:07:48;0.30;;;0.30;;
21634;SDS011;10979;48.306;9.830;2022-12-29T09:10:16;0.30;;;0.30;;
21634;SDS011;10979;48.306;9.830;2022-12-29T09:12:42;0.30;;;0.30;;
21634;SDS011;10979;48.306;9.830;2022-12-29T09:15:08;0.30;;;0.30;;
21634;SDS011;10979;48.306;9.830;2022-12-29T09:17:33;0.30;;;0.30;;
21634;SDS011;10979;48.306;9.830;2022-12-29T09:20:07;0.38;;;0.38;;
21634;SDS011;10979;48.306;9.830;2022-12-29T09:22:33;0.30;;;0.30;;
21634;SDS011;10979;48.306;9.830;2022-12-29T09:24:59;0.30;;;0.30;;
21634;SDS011;10979;48.306;9.830;2022-12-29T09:27:25;0.30;;;0.30;;
21634;SDS011;10979;48.306;9.830;2022-12-29T09:29:50;0.30;;;0.30;;
21634;SDS011;10979;48.306;9.830;2022-12-29T09:32:16;0.30;;;0.30;;
21634;SDS011;10979;48.306;9.830;2022-12-29T09:34:41;0.30;;;0.30;;
21634;SDS011;10979;48.306;9.830;2022-12-29T09:37:07;0.30;;;0.30;;
21634;SDS011;10979;48.306;9.830;2022-12-29T09:39:32;0.30;;;0.30;;
21634;SDS011;10979;48.306;9.830;2022-12-29T09:42:00;0.30;;;0.30;;
21634;SDS011;10979;48.306;9.830;2022-12-29T09:47:19;0.30;;;0.30;;
21634;SDS011;10979;48.306;9.830;2022-12-29T09:55:10;0.20;;;0.20;;
21634;SDS011;10979;48.306;9.830;2022-12-29T09:57:57;0.20;;;0.20;;
21634;SDS011;10979;48.306;9.830;2022-12-29T10:00:37;0.28;;;0.28;;
21634;SDS011;10979;48.306;9.830;2022-12-29T10:06:14;0.20;;;0.20;;
21634;SDS011;10979;48.306;9.830;2022-12-29T10:08:52;0.20;;;0.20;;
21634;SDS011;10979;48.306;9.830;2022-12-29T10:25:11;0.20;;;0.20;;
21634;SDS011;10979;48.306;9.830;2022-12-29T10:27:41;0.10;;;0.10;;
21634;SDS011;10979;48.306;9.830;2022-12-29T10:30:11;0.20;;;0.20;;
21634;SDS011;10979;48.306;9.830;2022-12-29T10:32:39;0.20;;;0.20;;
21634;SDS011;10979;48.306;9.830;2022-12-29T10:35:29;0.20;;;0.20;;
21634;SDS011;10979;48.306;9.830;2022-12-29T10:40:38;0.20;;;0.20;;
21634;SDS011;10979;48.306;9.830;2022-12-29T10:43:34;0.10;;;0.10;;
21634;SDS011;10979;48.306;9.830;2022-12-29T10:46:19;0.10;;;0.10;;
21634;SDS011;10979;48.306;9.830;2022-12-29T10:51:22;0.10;;;0.10;;
21634;SDS011;10979;48.306;9.830;2022-12-29T10:53:52;0.20;;;0.20;;
21634;SDS011;10979;48.306;9.830;2022-12-29T10:56:28;0.20;;;0.20;;
21634;SDS011;10979;48.306;9.830;2022-12-29T10:59:06;0.20;;;0.20;;
21634;SDS011;10979;48.306;9.830;2022-12-29T11:01:45;0.20;;;0.20;;
21634;SDS011;10979;48.306;9.830;2022-12-29T11:07:13;0.10;;;0.10;;
21634;SDS011;10979;48.306;9.830;2022-12-29T11:09:42;0.10;;;0.10;;
21634;SDS011;10979;48.306;9.830;2022-12-29T11:12:18;0.10;;;0.10;;
21634;SDS011;10979;48.306;9.830;2022-12-29T11:17:30;0.20;;;0.20;;
21634;SDS011;10979;48.306;9.830;2022-12-29T11:22:58;0.10;;;0.10;;
21634;SDS011;10979;48.306;9.830;2022-12-29T11:25:24;0.10;;;0.10;;
21634;SDS011;10979;48.306;9.830;2022-12-29T11:28:01;0.20;;;0.20;;
21634;SDS011;10979;48.306;9.830;2022-12-29T11:30:38;0.10;;;0.10;;
21634;SDS011;10979;48.306;9.830;2022-12-29T11:33:03;0.10;;;0.10;;
21634;SDS011;10979;48.306;9.830;2022-12-29T11:35:34;0.10;;;0.10;;
21634;SDS011;10979;48.306;9.830;2022-12-29T11:38:01;0.10;;;0.10;;
21634;SDS011;10979;48.306;9.830;2022-12-29T11:40:27;0.10;;;0.10;;
21634;SDS011;10979;48.306;9.830;2022-12-29T11:42:54;0.10;;;0.10;;
21634;SDS011;10979;48.306;9.830;2022-12-29T11:45:30;0.10;;;0.10;;
21634;SDS011;10979;48.306;9.830;2022-12-29T11:47:59;0.10;;;0.10;;
21634;SDS011;10979;48.306;9.830;2022-12-29T11:50:32;0.10;;;0.10;;
21634;SDS011;10979;48.306;9.830;2022-12-29T11:53:01;0.10;;;0.10;;
21634;SDS011;10979;48.306;9.830;2022-12-29T11:55:30;0.10;;;0.10;;
21634;SDS011;10979;48.306;9.830;2022-12-29T11:57:57;0.10;;;0.10;;
21634;SDS011;10979;48.306;9.830;2022-12-29T12:00:27;0.10;;;0.10;;
21634;SDS011;10979;48.306;9.830;2022-12-29T12:03:18;0.10;;;0.10;;
21634;SDS011;10979;48.306;9.830;2022-12-29T12:05:51;0.10;;;0.10;;
21634;SDS011;10979;48.306;9.830;2022-12-29T12:14:02;0.10;;;0.10;;
21634;SDS011;10979;48.306;9.830;2022-12-29T12:16:55;0.10;;;0.10;;
21634;SDS011;10979;48.306;9.830;2022-12-29T12:25:19;0.10;;;0.10;;
21634;SDS011;10979;48.306;9.830;2022-12-29T12:30:18;0.10;;;0.10;;
21634;SDS011;10979;48.306;9.830;2022-12-29T12:43:43;0.10;;;0.10;;
21634;SDS011;10979;48.306;9.830;2022-12-29T12:46:34;0.10;;;0.10;;
21634;SDS011;10979;48.306;9.830;2022-12-29T12:57:12;0.10;;;0.10;;
21634;SDS011;10979;48.306;9.830;2022-12-29T13:00:13;0.10;;;0.10;;
21634;SDS011;10979;48.306;9.830;2022-12-29T13:05:30;0.10;;;0.10;;
21634;SDS011;10979;48.306;9.830;2022-12-29T13:08:45;0.10;;;0.10;;
21634;SDS011;10979;48.306;9.830;2022-12-29T13:11:23;0.10;;;0.10;;
21634;SDS011;10979;48.306;9.830;2022-12-29T13:14:07;0.10;;;0.10;;
21634;SDS011;10979;48.306;9.830;2022-12-29T13:16:53;0.10;;;0.10;;
21634;SDS011;10979;48.306;9.830;2022-12-29T13:29:05;0.10;;;0.10;;
21634;SDS011;10979;48.306;9.830;2022-12-29T13:36:58;0.10;;;0.10;;
21634;SDS011;10979;48.306;9.830;2022-12-29T13:39:31;0.17;;;0.17;;
21634;SDS011;10979;48.306;9.830;2022-12-29T13:42:07;0.10;;;0.10;;
21634;SDS011;10979;48.306;9.830;2022-12-29T13:47:05;0.10;;;0.10;;
21634;SDS011;10979;48.306;9.830;2022-12-29T13:49:58;0.10;;;0.10;;
21634;SDS011;10979;48.306;9.830;2022-12-29T13:52:43;0.10;;;0.10;;
21634;SDS011;10979;48.306;9.830;2022-12-29T13:55:19;0.10;;;0.10;;
21634;SDS011;10979;48.306;9.830;2022-12-29T14:00:32;0.10;;;0.10;;
21634;SDS011;10979;48.306;9.830;2022-12-29T14:06:19;0.10;;;0.10;;
21634;SDS011;10979;48.306;9.830;2022-12-29T14:08:47;0.10;;;0.10;;
21634;SDS011;10979;48.306;9.830;2022-12-29T14:11:14;0.10;;;0.10;;
21634;SDS011;10979;48.306;9.830;2022-12-29T14:13:43;0.10;;;0.10;;
21634;SDS011;10979;48.306;9.830;2022-12-29T14:16:27;0.10;;;0.10;;
21634;SDS011;10979;48.306;9.830;2022-12-29T14:18:56;0.10;;;0.10;;
21634;SDS011;10979;48.306;9.830;2022-12-29T14:21:29;0.10;;;0.10;;
21634;SDS011;10979;48.306;9.830;2022-12-29T14:24:02;0.10;;;0.10;;
21634;SDS011;10979;48.306;9.830;2022-12-29T14:34:49;0.10;;;0.10;;
21634;SDS011;10979;48.306;9.830;2022-12-29T14:37:29;0.10;;;0.10;;
21634;SDS011;10979;48.306;9.830;2022-12-29T14:42:55;0.10;;;0.10;;
21634;SDS011;10979;48.306;9.830;2022-12-29T14:45:29;0.17;;;0.17;;
21634;SDS011;10979;48.306;9.830;2022-12-29T14:47:57;0.10;;;0.10;;
21634;SDS011;10979;48.306;9.830;2022-12-29T14:55:54;0.10;;;0.10;;
21634;SDS011;10979;48.306;9.830;2022-12-29T14:58:24;0.10;;;0.10;;
21634;SDS011;10979;48.306;9.830;2022-12-29T15:00:51;0.10;;;0.10;;
21634;SDS011;10979;48.306;9.830;2022-12-29T15:05:55;0.10;;;0.10;;
21634;SDS011;10979;48.306;9.830;2022-12-29T15:08:31;0.10;;;0.10;;
21634;SDS011;10979;48.306;9.830;2022-12-29T15:11:13;0.10;;;0.10;;
21634;SDS011;10979;48.306;9.830;2022-12-29T15:13:42;0.10;;;0.10;;
21634;SDS011;10979;48.306;9.830;2022-12-29T15:16:21;0.10;;;0.10;;
21634;SDS011;10979;48.306;9.830;2022-12-29T15:18:49;0.10;;;0.10;;
21634;SDS011;10979;48.306;9.830;2022-12-29T15:21:15;0.10;;;0.10;;
21634;SDS011;10979;48.306;9.830;2022-12-29T15:23:42;0.13;;;0.13;;
21634;SDS011;10979;48.306;9.830;2022-12-29T15:26:09;0.10;;;0.10;;
21634;SDS011;10979;48.306;9.830;2022-12-29T15:28:43;0.10;;;0.10;;
21634;SDS011;10979;48.306;9.830;2022-12-29T15:33:39;0.10;;;0.10;;
21634;SDS011;10979;48.306;9.830;2022-12-29T15:36:10;0.20;;;0.20;;
21634;SDS011;10979;48.306;9.830;2022-12-29T15:38:37;0.10;;;0.10;;
21634;SDS011;10979;48.306;9.830;2022-12-29T15:41:11;0.10;;;0.10;;
21634;SDS011;10979;48.306;9.830;2022-12-29T15:46:15;0.10;;;0.10;;
21634;SDS011;10979;48.306;9.830;2022-12-29T15:48:41;0.10;;;0.10;;
21634;SDS011;10979;48.306;9.830;2022-12-29T15:51:18;0.10;;;0.10;;
21634;SDS011;10979;48.306;9.830;2022-12-29T15:53:48;0.20;;;0.20;;
21634;SDS011;10979;48.306;9.830;2022-12-29T15:56:15;0.20;;;0.20;;
21634;SDS011;10979;48.306;9.830;2022-12-29T15:58:43;0.13;;;0.13;;
21634;SDS011;10979;48.306;9.830;2022-12-29T16:01:23;0.20;;;0.20;;
21634;SDS011;10979;48.306;9.830;2022-12-29T16:03:51;0.20;;;0.20;;
21634;SDS011;10979;48.306;9.830;2022-12-29T16:09:00;0.20;;;0.20;;
21634;SDS011;10979;48.306;9.830;2022-12-29T16:11:40;0.10;;;0.10;;
21634;SDS011;10979;48.306;9.830;2022-12-29T16:14:12;0.10;;;0.10;;
21634;SDS011;10979;48.306;9.830;2022-12-29T16:16:41;0.20;;;0.20;;
21634;SDS011;10979;48.306;9.830;2022-12-29T16:21:52;0.20;;;0.20;;
21634;SDS011;10979;48.306;9.830;2022-12-29T16:24:18;0.20;;;0.20;;
21634;SDS011;10979;48.306;9.830;2022-12-29T16:26:51;0.20;;;0.20;;
21634;SDS011;10979;48.306;9.830;2022-12-29T16:29:24;0.10;;;0.10;;
21634;SDS011;10979;48.306;9.830;2022-12-29T16:31:57;0.20;;;0.20;;
21634;SDS011;10979;48.306;9.830;2022-12-29T16:34:45;0.20;;;0.20;;
21634;SDS011;10979;48.306;9.830;2022-12-29T16:37:31;0.20;;;0.20;;
21634;SDS011;10979;48.306;9.830;2022-12-29T16:42:45;0.20;;;0.20;;
21634;SDS011;10979;48.306;9.830;2022-12-29T16:47:47;0.20;;;0.20;;
21634;SDS011;10979;48.306;9.830;2022-12-29T16:50:17;0.20;;;0.20;;
21634;SDS011;10979;48.306;9.830;2022-12-29T16:52:53;0.20;;;0.20;;
21634;SDS011;10979;48.306;9.830;2022-12-29T16:55:18;0.20;;;0.20;;
21634;SDS011;10979;48.306;9.830;2022-12-29T16:57:45;0.20;;;0.20;;
21634;SDS011;10979;48.306;9.830;2022-12-29T17:00:20;0.20;;;0.20;;
21634;SDS011;10979;48.306;9.830;2022-12-29T17:02:47;0.20;;;0.20;;
21634;SDS011;10979;48.306;9.830;2022-12-29T17:05:16;0.30;;;0.30;;
21634;SDS011;10979;48.306;9.830;2022-12-29T17:07:43;0.20;;;0.20;;
21634;SDS011;10979;48.306;9.830;2022-12-29T17:10:09;0.30;;;0.30;;
21634;SDS011;10979;48.306;9.830;2022-12-29T17:12:35;0.20;;;0.20;;
21634;SDS011;10979;48.306;9.830;2022-12-29T17:17:32;0.20;;;0.20;;
21634;SDS011;10979;48.306;9.830;2022-12-29T17:20:00;0.20;;;0.20;;
21634;SDS011;10979;48.306;9.830;2022-12-29T17:24:57;0.25;;;0.25;;
21634;SDS011;10979;48.306;9.830;2022-12-29T17:27:38;0.25;;;0.25;;
21634;SDS011;10979;48.306;9.830;2022-12-29T17:30:14;0.20;;;0.20;;
21634;SDS011;10979;48.306;9.830;2022-12-29T17:32:42;0.30;;;0.30;;
21634;SDS011;10979;48.306;9.830;2022-12-29T17:35:14;0.20;;;0.20;;
21634;SDS011;10979;48.306;9.830;2022-12-29T17:37:44;0.30;;;0.30;;
21634;SDS011;10979;48.306;9.830;2022-12-29T17:40:12;0.30;;;0.30;;
21634;SDS011;10979;48.306;9.830;2022-12-29T17:42:42;0.28;;;0.28;;
21634;SDS011;10979;48.306;9.830;2022-12-29T17:45:13;0.20;;;0.20;;
21634;SDS011;10979;48.306;9.830;2022-12-29T17:47:46;0.30;;;0.30;;
21634;SDS011;10979;48.306;9.830;2022-12-29T17:50:19;0.20;;;0.20;;
21634;SDS011;10979;48.306;9.830;2022-12-29T17:52:50;0.20;;;0.20;;
21634;SDS011;10979;48.306;9.830;2022-12-29T17:55:20;0.20;;;0.20;;
21634;SDS011;10979;48.306;9.830;2022-12-29T17:57:48;0.20;;;0.20;;
21634;SDS011;10979;48.306;9.830;2022-12-29T18:00:17;0.20;;;0.20;;
21634;SDS011;10979;48.306;9.830;2022-12-29T18:02:48;0.20;;;0.20;;
21634;SDS011;10979;48.306;9.830;2022-12-29T18:05:16;0.20;;;0.20;;